• Join FlightAware (Why Join?)
  • Login
  • US Flag 
03:20PM EST


 

Airport Tracker/Info


-or-


 

Live Flight TrackerFlight Track Log ✈ GJS3710 ✈ 14-May-2013 ✈ KDEN - KMSN

Flight Track Log - Related Links

Times and Time Zones

All times are in EDT time to prevent confusion due to time zone crossing. See the GJS3710 flight status page for this flight to view local times or setup timezone preferences in your user account.

Time Position Orientation Groundspeed Altitude Reporting Facility
EDT Latitude Longitude Course Direction KTS MPH feet Rate Location/Type
06:05PM 39.9167 -104.6833 63° Northeast 180 207 6,400  Level Denver TRACON
06:06PM 39.9478 -104.6039 63° Northeast 233 268 8,200 1,380 Climbing Denver Center
06:07PM 39.9322 -104.5047 102° East 267 307 9,500 1,500 Climbing Denver Center
06:08PM 39.9039 -104.4036 110° East 290 334 11,300 1,560 Climbing Denver Center
06:09PM 39.8883 -104.2817 99° East 342 394 12,800 1,860 Climbing Denver Center
06:10PM 39.8917 -104.1417 88° East 359 413 15,200 1,920 Climbing Denver Center
06:11PM 39.8972 -104.0072 87° East 372 428 16,800 1,620 Climbing Denver Center
06:12PM 39.9606 -103.8803 57° Northeast 390 449 18,600 1,380 Climbing Denver Center
06:13PM 40.0197 -103.7606 57° Northeast 398 458 19,700 840 Climbing Denver Center
06:14PM 40.0456 -103.6144 77° East 397 457 20,400 780 Climbing Denver Center
06:15PM 40.0697 -103.4731 77° East 414 476 21,400 1,200 Climbing Denver Center
06:16PM 40.0961 -103.3083 78° East 414 476 22,900 1,260 Climbing Denver Center
06:17PM 40.1197 -103.1653 78° East 419 482 24,100 1,200 Climbing Denver Center
06:18PM 40.1458 -102.9942 79° East 429 494 25,400 1,140 Climbing Denver Center
06:19PM 40.1711 -102.8433 78° East 439 505 26,500 1,020 Climbing Denver Center
06:20PM 40.1936 -102.6919 79° East 443 510 27,600 1,020 Climbing Denver Center
06:21PM 40.2208 -102.5117 79° East 452 520 28,700 960 Climbing Denver Center
06:22PM 40.2444 -102.3556 79° East 458 527 29,700 1,020 Climbing Denver Center
06:23PM 40.2733 -102.1731 78° East 458 527 30,900 600 Climbing Denver Center
06:25PM 40.2967 -102.0153 79° East 461 531 31,000 540 Climbing Denver Center
06:26PM 40.3253 -101.8283 79° East 468 539 32,100 1,080 Climbing Denver Center
06:27PM 40.3481 -101.6708 79° East 463 533 33,300 1,140 Climbing Denver Center
06:28PM 40.3747 -101.4903 79° East 452 520 34,500 900 Climbing Denver Center
06:29PM 40.3958 -101.3356 80° East 450 518 35,200 660 Climbing Denver Center
06:30PM 40.4369 -101.1594 73° East 454 522 35,900 600 Climbing Denver Center
06:31PM 40.4878 -101.0150 65° Northeast 458 527 36,500 480 Climbing Denver Center
06:32PM 40.5458 -100.8442 66° East 460 529 37,000 240 Climbing Denver Center
06:33PM 40.5967 -100.6992 65° Northeast 461 531 37,000  Level Denver Center
06:34PM 40.6553 -100.5303 65° Northeast 460 529 37,000  Level Denver Center
06:35PM 40.7061 -100.3864 65° Northeast 458 527 37,000  Level Denver Center
06:36PM 40.7633 -100.2167 66° East 457 526 37,000  Level Denver Center
06:37PM 40.8131 -100.0714 66° East 456 525 37,000  Level Denver Center
06:38PM 40.8711 -99.9006 66° East 457 526 37,000  Level Denver Center
06:39PM 40.9228 -99.7461 66° East 462 532 37,000  Level Denver Center
06:40PM 40.9747 -99.5892 66° East 465 535 37,000  Level Denver Center
06:41PM 41.0272 -99.4319 66° East 466 536 37,000  Level Denver Center
06:42PM 41.0794 -99.2739 66° East 467 537 37,000  Level Denver Center
06:43PM 41.1411 -99.0844 67° East 466 536 37,000  Level Denver Center
06:44PM 41.1936 -98.9228 67° East 466 536 37,000  Level Denver Center
06:45PM 41.2433 -98.7819 65° Northeast 478 550 37,000  Level Minneapolis Center
06:46PM 41.3011 -98.5911 68° East 471 542 37,000  Level Minneapolis Center
06:47PM 41.3506 -98.4356 67° East 465 535 37,000  Level Minneapolis Center
06:48PM 41.3978 -98.2711 69° East 472 543 37,000  Level Minneapolis Center
06:49PM 41.4367 -98.1025 73° East 471 542 37,000  Level Minneapolis Center
06:50PM 41.4764 -97.9350 72° East 474 545 37,000  Level Minneapolis Center
06:51PM 41.5167 -97.7667 72° East 476 548 37,000  Level Minneapolis Center
06:52PM 41.5636 -97.5644 73° East 475 547 37,000  Level Minneapolis Center
06:53PM 41.6031 -97.3983 72° East 472 543 37,000  Level Minneapolis Center
06:55PM 41.6408 -97.2303 73° East 472 543 37,000  Level Minneapolis Center
06:56PM 41.6875 -97.0267 73° East 476 548 37,000  Level Minneapolis Center
06:57PM 41.7272 -96.8556 73° East 478 550 37,000  Level Minneapolis Center
06:58PM 41.7642 -96.6850 74° East 477 549 37,000  Level Minneapolis Center
06:59PM 41.7956 -96.5481 73° East 477 549 37,000  Level Minneapolis Center
07:00PM 41.8403 -96.3417 74° East 481 554 37,000  Level Minneapolis Center
07:01PM 41.8858 -96.1350 73° East 479 551 37,000  Level Minneapolis Center
07:02PM 41.9239 -95.9617 74° East 479 551 37,000  Level Minneapolis Center
07:03PM 41.9614 -95.7864 74° East 483 556 37,000  Level Minneapolis Center
07:04PM 41.9908 -95.6483 74° East 482 555 37,000  Level Minneapolis Center
07:05PM 42.0353 -95.4367 74° East 488 562 37,000  Level Minneapolis Center
07:06PM 42.0719 -95.2617 74° East 486 559 37,000  Level Minneapolis Center
07:07PM 42.1092 -95.0844 74° East 490 564 37,000  Level Minneapolis Center
07:08PM 42.1519 -94.8742 75° East 487 560 37,000  Level Minneapolis Center
07:09PM 42.1881 -94.6981 74° East 487 560 37,000  Level Minneapolis Center
07:10PM 42.2233 -94.5208 75° East 489 563 37,000  Level Minneapolis Center
07:11PM 42.2592 -94.3436 75° East 490 564 37,000  Level Minneapolis Center
07:12PM 42.2928 -94.1808 74° East 494 568 37,000  Level Minneapolis Center
07:13PM 42.3353 -93.9661 75° East 496 571 37,000  Level Minneapolis Center
07:14PM 42.3689 -93.7897 75° East 492 566 37,000  Level Minneapolis Center
07:16PM 42.4100 -93.5769 75° East 492 566 37,000  Level Minneapolis Center
07:17PM 42.4442 -93.3997 75° East 492 566 37,000  Level Minneapolis Center
07:18PM 42.4914 -93.1508 75° East 493 567 37,000 -120 Level Minneapolis Center
07:19PM 42.5250 -92.9725 76° East 493 567 36,800 -480 Descending Minneapolis Center
07:20PM 42.5578 -92.7947 76° East 493 567 36,100 -720 Descending Minneapolis Center
07:21PM 42.5903 -92.6183 76° East 488 562 35,400 -720 Descending Minneapolis Center
07:22PM 42.6242 -92.4367 76° East 498 573 34,700 -840 Descending Minneapolis Center
07:23PM 42.6561 -92.2567 76° East 498 573 33,700 -1,800 Descending Minneapolis Center
07:25PM 42.7375 -91.7933 76° East 494 568 28,500 -2,040 Descending Chicago Center
07:26PM 42.7689 -91.6194 76° East 486 559 26,600 -1,800 Descending Minneapolis Center
07:28PM 42.8011 -91.4297 77° East 477 549 24,800 -1,740 Descending Minneapolis Center
07:29PM 42.8306 -91.2600 77° East 470 541 23,100 -1,860 Descending Chicago Center
07:30PM 42.8589 -91.0925 77° East 453 521 21,100 -1,920 Descending Chicago Center
07:31PM 42.8858 -90.9333 77° East 438 504 19,200 -2,220 Descending Chicago Center
07:32PM 42.9158 -90.7414 78° East 434 499 16,600 -2,280 Descending Minneapolis Center
07:33PM 42.9414 -90.5858 77° East 428 493 14,600 -1,800 Descending Minneapolis Center
07:34PM 42.9650 -90.4372 78° East 412 474 12,900 -1,440 Descending Minneapolis Center
07:35PM 42.9914 -90.2903 76° East 406 467 11,700 -900 Descending Chicago Center
07:36PM 43.0156 -90.1378 78° East 414 476 11,100 -300 Descending Chicago Center
07:37PM 43.0431 -89.9625 78° East 397 457 11,100 -300 Level Chicago Center
07:38PM 43.0633 -89.8281 78° East 383 441 10,600 -1,200 Descending Chicago Center
07:39PM 43.0814 -89.7078 78° East 328 377 8,700 -2,340 Descending Chicago Center
07:40PM 43.1036 -89.5653 78° East 325 374 5,800 -2,340 Descending Chicago Center
07:41PM 43.1456 -89.4706 59° Northeast 303 349 3,900 -1,260 Descending Chicago Center
07:42PM 43.2081 -89.4136 34° Northeast 282 325 3,200 -720 Descending Chicago Center
07:43PM 43.2331 -89.3575 59° Northeast 217 250 2,500 -660 Descending Chicago Center
07:44PM 43.1997 -89.3381 157° South 162 186 1,900 -600 Descending Chicago Center